sensor_id;sensor_type;location;lat;lon;timestamp;P1;durP1;ratioP1;P2;durP2;ratioP2
67776;SDS011;54576;52.020;5.536;2022-08-19T00:00:06;6.55;;;5.95;;
67776;SDS011;54576;52.020;5.536;2022-08-19T00:02:34;6.38;;;5.13;;
67776;SDS011;54576;52.020;5.536;2022-08-19T00:05:00;6.05;;;5.53;;
67776;SDS011;54576;52.020;5.536;2022-08-19T00:07:26;6.43;;;5.47;;
67776;SDS011;54576;52.020;5.536;2022-08-19T00:09:52;6.13;;;5.55;;
67776;SDS011;54576;52.020;5.536;2022-08-19T00:12:18;8.75;;;5.28;;
67776;SDS011;54576;52.020;5.536;2022-08-19T00:14:44;5.75;;;5.15;;
67776;SDS011;54576;52.020;5.536;2022-08-19T00:17:10;5.38;;;4.93;;
67776;SDS011;54576;52.020;5.536;2022-08-19T00:19:36;8.43;;;5.95;;
67776;SDS011;54576;52.020;5.536;2022-08-19T00:22:02;7.75;;;6.18;;
67776;SDS011;54576;52.020;5.536;2022-08-19T00:24:28;7.85;;;5.55;;
67776;SDS011;54576;52.020;5.536;2022-08-19T00:26:54;6.50;;;5.10;;
67776;SDS011;54576;52.020;5.536;2022-08-19T00:29:22;6.72;;;4.90;;
67776;SDS011;54576;52.020;5.536;2022-08-19T00:31:49;12.13;;;4.68;;
67776;SDS011;54576;52.020;5.536;2022-08-19T00:34:18;7.70;;;5.45;;
67776;SDS011;54576;52.020;5.536;2022-08-19T00:36:43;9.52;;;5.45;;
67776;SDS011;54576;52.020;5.536;2022-08-19T00:39:10;6.30;;;5.68;;
67776;SDS011;54576;52.020;5.536;2022-08-19T00:41:36;7.22;;;5.03;;
67776;SDS011;54576;52.020;5.536;2022-08-19T00:46:40;9.82;;;5.38;;
67776;SDS011;54576;52.020;5.536;2022-08-19T00:49:18;5.72;;;5.13;;
67776;SDS011;54576;52.020;5.536;2022-08-19T00:51:50;11.93;;;5.03;;
67776;SDS011;54576;52.020;5.536;2022-08-19T00:54:20;6.20;;;5.32;;
67776;SDS011;54576;52.020;5.536;2022-08-19T00:56:48;10.25;;;5.43;;
67776;SDS011;54576;52.020;5.536;2022-08-19T00:59:15;5.88;;;5.38;;
67776;SDS011;54576;52.020;5.536;2022-08-19T01:01:43;5.65;;;5.15;;
67776;SDS011;54576;52.020;5.536;2022-08-19T01:04:10;6.97;;;5.28;;
67776;SDS011;54576;52.020;5.536;2022-08-19T01:06:37;5.68;;;5.18;;
67776;SDS011;54576;52.020;5.536;2022-08-19T01:09:05;7.05;;;5.80;;
67776;SDS011;54576;52.020;5.536;2022-08-19T01:11:33;5.57;;;5.07;;
67776;SDS011;54576;52.020;5.536;2022-08-19T01:14:02;11.70;;;7.25;;
67776;SDS011;54576;52.020;5.536;2022-08-19T01:16:28;7.85;;;6.18;;
67776;SDS011;54576;52.020;5.536;2022-08-19T01:18:56;6.32;;;5.10;;
67776;SDS011;54576;52.020;5.536;2022-08-19T01:21:32;8.35;;;5.78;;
67776;SDS011;54576;52.020;5.536;2022-08-19T01:24:04;6.00;;;5.10;;
67776;SDS011;54576;52.020;5.536;2022-08-19T01:26:29;8.73;;;5.80;;
67776;SDS011;54576;52.020;5.536;2022-08-19T01:28:56;12.65;;;6.28;;
67776;SDS011;54576;52.020;5.536;2022-08-19T01:31:24;6.13;;;5.53;;
67776;SDS011;54576;52.020;5.536;2022-08-19T01:33:51;6.20;;;5.70;;
67776;SDS011;54576;52.020;5.536;2022-08-19T01:36:22;8.50;;;5.20;;
67776;SDS011;54576;52.020;5.536;2022-08-19T01:38:53;5.88;;;5.05;;
67776;SDS011;54576;52.020;5.536;2022-08-19T01:41:19;9.23;;;5.50;;
67776;SDS011;54576;52.020;5.536;2022-08-19T01:43:45;7.00;;;5.80;;
67776;SDS011;54576;52.020;5.536;2022-08-19T01:46:10;7.63;;;5.82;;
67776;SDS011;54576;52.020;5.536;2022-08-19T01:48:38;7.28;;;6.35;;
67776;SDS011;54576;52.020;5.536;2022-08-19T01:51:07;8.88;;;5.95;;
67776;SDS011;54576;52.020;5.536;2022-08-19T01:53:32;8.43;;;6.50;;
67776;SDS011;54576;52.020;5.536;2022-08-19T01:55:59;10.23;;;5.30;;
67776;SDS011;54576;52.020;5.536;2022-08-19T01:58:27;5.30;;;4.85;;
67776;SDS011;54576;52.020;5.536;2022-08-19T02:00:57;6.93;;;6.28;;
67776;SDS011;54576;52.020;5.536;2022-08-19T02:03:23;8.85;;;6.53;;
67776;SDS011;54576;52.020;5.536;2022-08-19T02:05:53;8.45;;;6.45;;
67776;SDS011;54576;52.020;5.536;2022-08-19T02:08:21;9.55;;;6.82;;
67776;SDS011;54576;52.020;5.536;2022-08-19T02:10:46;6.53;;;5.57;;
67776;SDS011;54576;52.020;5.536;2022-08-19T02:13:13;7.43;;;4.78;;
67776;SDS011;54576;52.020;5.536;2022-08-19T02:15:38;9.43;;;5.47;;
67776;SDS011;54576;52.020;5.536;2022-08-19T02:18:05;6.75;;;6.15;;
67776;SDS011;54576;52.020;5.536;2022-08-19T02:20:32;10.93;;;6.03;;
67776;SDS011;54576;52.020;5.536;2022-08-19T02:22:58;6.70;;;5.78;;
67776;SDS011;54576;52.020;5.536;2022-08-19T02:25:26;7.18;;;6.00;;
67776;SDS011;54576;52.020;5.536;2022-08-19T02:27:51;5.93;;;5.43;;
67776;SDS011;54576;52.020;5.536;2022-08-19T02:30:19;6.53;;;5.88;;
67776;SDS011;54576;52.020;5.536;2022-08-19T02:32:45;8.82;;;5.53;;
67776;SDS011;54576;52.020;5.536;2022-08-19T02:35:12;10.13;;;6.78;;
67776;SDS011;54576;52.020;5.536;2022-08-19T02:37:39;7.35;;;6.63;;
67776;SDS011;54576;52.020;5.536;2022-08-19T02:40:27;9.52;;;6.82;;
67776;SDS011;54576;52.020;5.536;2022-08-19T02:42:55;10.30;;;7.80;;
67776;SDS011;54576;52.020;5.536;2022-08-19T02:45:21;7.03;;;6.43;;
67776;SDS011;54576;52.020;5.536;2022-08-19T02:47:47;7.00;;;6.40;;
67776;SDS011;54576;52.020;5.536;2022-08-19T02:50:13;10.88;;;6.55;;
67776;SDS011;54576;52.020;5.536;2022-08-19T02:52:39;10.25;;;6.63;;
67776;SDS011;54576;52.020;5.536;2022-08-19T02:55:05;7.15;;;6.05;;
67776;SDS011;54576;52.020;5.536;2022-08-19T02:57:32;10.13;;;6.82;;
67776;SDS011;54576;52.020;5.536;2022-08-19T02:59:58;10.15;;;6.40;;
67776;SDS011;54576;52.020;5.536;2022-08-19T03:02:23;6.47;;;5.95;;
67776;SDS011;54576;52.020;5.536;2022-08-19T03:04:49;7.40;;;6.65;;
67776;SDS011;54576;52.020;5.536;2022-08-19T03:07:17;7.53;;;6.78;;
67776;SDS011;54576;52.020;5.536;2022-08-19T03:09:43;6.97;;;6.38;;
67776;SDS011;54576;52.020;5.536;2022-08-19T03:12:09;6.50;;;5.90;;
67776;SDS011;54576;52.020;5.536;2022-08-19T03:14:35;7.15;;;6.50;;
67776;SDS011;54576;52.020;5.536;2022-08-19T03:17:01;6.82;;;6.22;;
67776;SDS011;54576;52.020;5.536;2022-08-19T03:19:28;9.27;;;7.13;;
67776;SDS011;54576;52.020;5.536;2022-08-19T03:21:53;10.77;;;6.40;;
67776;SDS011;54576;52.020;5.536;2022-08-19T03:24:20;9.63;;;5.90;;
67776;SDS011;54576;52.020;5.536;2022-08-19T03:26:47;7.38;;;6.53;;
67776;SDS011;54576;52.020;5.536;2022-08-19T03:29:15;6.97;;;5.88;;
67776;SDS011;54576;52.020;5.536;2022-08-19T03:31:42;7.53;;;6.85;;
67776;SDS011;54576;52.020;5.536;2022-08-19T03:34:09;7.82;;;5.47;;
67776;SDS011;54576;52.020;5.536;2022-08-19T03:36:37;9.45;;;7.32;;
67776;SDS011;54576;52.020;5.536;2022-08-19T03:39:03;12.43;;;6.88;;
67776;SDS011;54576;52.020;5.536;2022-08-19T03:41:35;11.57;;;6.63;;
67776;SDS011;54576;52.020;5.536;2022-08-19T03:44:02;10.07;;;6.95;;
67776;SDS011;54576;52.020;5.536;2022-08-19T03:46:30;8.70;;;6.75;;
67776;SDS011;54576;52.020;5.536;2022-08-19T03:48:58;6.30;;;5.57;;
67776;SDS011;54576;52.020;5.536;2022-08-19T03:51:26;7.15;;;6.38;;
67776;SDS011;54576;52.020;5.536;2022-08-19T03:53:56;8.55;;;6.90;;
67776;SDS011;54576;52.020;5.536;2022-08-19T03:56:24;8.50;;;6.57;;
67776;SDS011;54576;52.020;5.536;2022-08-19T03:58:51;10.00;;;6.82;;
67776;SDS011;54576;52.020;5.536;2022-08-19T04:01:18;6.22;;;5.53;;
67776;SDS011;54576;52.020;5.536;2022-08-19T04:03:46;11.52;;;6.78;;
67776;SDS011;54576;52.020;5.536;2022-08-19T04:06:19;7.30;;;6.55;;
67776;SDS011;54576;52.020;5.536;2022-08-19T04:08:47;7.20;;;6.47;;
67776;SDS011;54576;52.020;5.536;2022-08-19T04:11:15;6.95;;;5.90;;
67776;SDS011;54576;52.020;5.536;2022-08-19T04:13:45;7.15;;;6.45;;
67776;SDS011;54576;52.020;5.536;2022-08-19T04:16:11;7.22;;;6.53;;
67776;SDS011;54576;52.020;5.536;2022-08-19T04:18:38;8.75;;;6.45;;
67776;SDS011;54576;52.020;5.536;2022-08-19T04:21:05;14.53;;;7.20;;
67776;SDS011;54576;52.020;5.536;2022-08-19T04:23:32;7.72;;;6.90;;
67776;SDS011;54576;52.020;5.536;2022-08-19T04:26:00;8.05;;;6.10;;
67776;SDS011;54576;52.020;5.536;2022-08-19T04:28:25;6.85;;;6.03;;
67776;SDS011;54576;52.020;5.536;2022-08-19T04:30:52;9.13;;;6.82;;
67776;SDS011;54576;52.020;5.536;2022-08-19T04:33:19;8.45;;;7.15;;
67776;SDS011;54576;52.020;5.536;2022-08-19T04:35:48;14.43;;;6.97;;
67776;SDS011;54576;52.020;5.536;2022-08-19T04:38:18;6.82;;;6.22;;
67776;SDS011;54576;52.020;5.536;2022-08-19T04:40:46;9.45;;;7.28;;
67776;SDS011;54576;52.020;5.536;2022-08-19T04:43:33;8.30;;;6.72;;
67776;SDS011;54576;52.020;5.536;2022-08-19T04:46:10;9.43;;;7.00;;
67776;SDS011;54576;52.020;5.536;2022-08-19T04:48:38;11.93;;;7.13;;
67776;SDS011;54576;52.020;5.536;2022-08-19T04:51:09;9.52;;;6.03;;
67776;SDS011;54576;52.020;5.536;2022-08-19T04:53:38;9.20;;;6.32;;
67776;SDS011;54576;52.020;5.536;2022-08-19T04:56:05;7.45;;;6.53;;
67776;SDS011;54576;52.020;5.536;2022-08-19T04:58:34;11.23;;;6.65;;
67776;SDS011;54576;52.020;5.536;2022-08-19T05:01:00;11.35;;;7.65;;
67776;SDS011;54576;52.020;5.536;2022-08-19T05:03:27;8.77;;;7.40;;
67776;SDS011;54576;52.020;5.536;2022-08-19T05:05:58;11.82;;;6.88;;
67776;SDS011;54576;52.020;5.536;2022-08-19T05:08:29;8.00;;;6.88;;
67776;SDS011;54576;52.020;5.536;2022-08-19T05:10:55;8.73;;;6.70;;
67776;SDS011;54576;52.020;5.536;2022-08-19T05:13:22;8.23;;;7.43;;
67776;SDS011;54576;52.020;5.536;2022-08-19T05:15:55;8.65;;;7.75;;
67776;SDS011;54576;52.020;5.536;2022-08-19T05:18:22;10.40;;;8.07;;
67776;SDS011;54576;52.020;5.536;2022-08-19T05:21:10;11.38;;;8.57;;
67776;SDS011;54576;52.020;5.536;2022-08-19T05:23:57;19.60;;;9.32;;
67776;SDS011;54576;52.020;5.536;2022-08-19T05:26:23;9.45;;;8.40;;
67776;SDS011;54576;52.020;5.536;2022-08-19T05:28:51;9.50;;;8.32;;
67776;SDS011;54576;52.020;5.536;2022-08-19T05:31:17;12.23;;;7.60;;
67776;SDS011;54576;52.020;5.536;2022-08-19T05:33:43;9.73;;;8.43;;
67776;SDS011;54576;52.020;5.536;2022-08-19T05:36:09;9.60;;;8.70;;
67776;SDS011;54576;52.020;5.536;2022-08-19T05:38:35;9.73;;;8.50;;
67776;SDS011;54576;52.020;5.536;2022-08-19T05:41:05;11.73;;;9.40;;
67776;SDS011;54576;52.020;5.536;2022-08-19T05:43:35;13.70;;;9.75;;
67776;SDS011;54576;52.020;5.536;2022-08-19T05:46:02;13.15;;;9.20;;
67776;SDS011;54576;52.020;5.536;2022-08-19T05:48:29;20.42;;;9.07;;
67776;SDS011;54576;52.020;5.536;2022-08-19T05:50:55;15.20;;;10.05;;
67776;SDS011;54576;52.020;5.536;2022-08-19T05:53:21;11.15;;;8.63;;
67776;SDS011;54576;52.020;5.536;2022-08-19T05:55:47;13.98;;;10.20;;
67776;SDS011;54576;52.020;5.536;2022-08-19T05:58:13;28.83;;;17.65;;
67776;SDS011;54576;52.020;5.536;2022-08-19T06:00:38;29.00;;;17.30;;
67776;SDS011;54576;52.020;5.536;2022-08-19T06:03:05;38.67;;;21.65;;
67776;SDS011;54576;52.020;5.536;2022-08-19T06:05:30;36.10;;;21.40;;
67776;SDS011;54576;52.020;5.536;2022-08-19T06:07:57;40.97;;;24.52;;
67776;SDS011;54576;52.020;5.536;2022-08-19T06:10:23;52.38;;;29.50;;
67776;SDS011;54576;52.020;5.536;2022-08-19T06:12:49;61.45;;;32.05;;
67776;SDS011;54576;52.020;5.536;2022-08-19T06:15:15;55.10;;;30.23;;
67776;SDS011;54576;52.020;5.536;2022-08-19T06:17:41;54.70;;;29.02;;
67776;SDS011;54576;52.020;5.536;2022-08-19T06:20:10;59.63;;;31.88;;
67776;SDS011;54576;52.020;5.536;2022-08-19T06:22:39;63.83;;;33.40;;
67776;SDS011;54576;52.020;5.536;2022-08-19T06:25:05;58.13;;;33.53;;
67776;SDS011;54576;52.020;5.536;2022-08-19T06:27:31;68.78;;;37.13;;
67776;SDS011;54576;52.020;5.536;2022-08-19T06:29:58;66.38;;;36.10;;
67776;SDS011;54576;52.020;5.536;2022-08-19T06:32:24;65.68;;;35.58;;
67776;SDS011;54576;52.020;5.536;2022-08-19T06:34:49;70.90;;;36.15;;
67776;SDS011;54576;52.020;5.536;2022-08-19T06:37:15;65.55;;;35.95;;
67776;SDS011;54576;52.020;5.536;2022-08-19T06:39:42;69.35;;;37.30;;
67776;SDS011;54576;52.020;5.536;2022-08-19T06:42:09;73.30;;;37.40;;
67776;SDS011;54576;52.020;5.536;2022-08-19T06:44:38;74.00;;;38.30;;
67776;SDS011;54576;52.020;5.536;2022-08-19T06:47:06;90.07;;;42.15;;
67776;SDS011;54576;52.020;5.536;2022-08-19T06:49:33;92.73;;;45.50;;
67776;SDS011;54576;52.020;5.536;2022-08-19T06:52:00;98.25;;;46.92;;
67776;SDS011;54576;52.020;5.536;2022-08-19T06:54:26;88.80;;;44.42;;
67776;SDS011;54576;52.020;5.536;2022-08-19T06:56:57;93.40;;;47.40;;
67776;SDS011;54576;52.020;5.536;2022-08-19T06:59:27;90.72;;;48.08;;
67776;SDS011;54576;52.020;5.536;2022-08-19T07:01:54;88.30;;;43.67;;
67776;SDS011;54576;52.020;5.536;2022-08-19T07:04:22;95.85;;;47.65;;
67776;SDS011;54576;52.020;5.536;2022-08-19T07:06:50;80.57;;;43.25;;
67776;SDS011;54576;52.020;5.536;2022-08-19T07:09:34;87.68;;;41.30;;
67776;SDS011;54576;52.020;5.536;2022-08-19T07:12:03;89.22;;;43.97;;
67776;SDS011;54576;52.020;5.536;2022-08-19T07:14:32;88.70;;;45.72;;
67776;SDS011;54576;52.020;5.536;2022-08-19T07:17:01;94.50;;;45.53;;
67776;SDS011;54576;52.020;5.536;2022-08-19T07:19:28;90.85;;;45.03;;
67776;SDS011;54576;52.020;5.536;2022-08-19T07:21:54;94.72;;;47.05;;
67776;SDS011;54576;52.020;5.536;2022-08-19T07:24:22;92.70;;;47.30;;
67776;SDS011;54576;52.020;5.536;2022-08-19T07:26:49;83.40;;;41.22;;
67776;SDS011;54576;52.020;5.536;2022-08-19T07:29:17;88.85;;;45.17;;
67776;SDS011;54576;52.020;5.536;2022-08-19T07:31:43;94.95;;;46.45;;
67776;SDS011;54576;52.020;5.536;2022-08-19T07:34:09;82.43;;;43.47;;
67776;SDS011;54576;52.020;5.536;2022-08-19T07:36:38;84.05;;;42.17;;
67776;SDS011;54576;52.020;5.536;2022-08-19T07:39:07;95.32;;;46.15;;
67776;SDS011;54576;52.020;5.536;2022-08-19T07:41:44;86.18;;;41.50;;
67776;SDS011;54576;52.020;5.536;2022-08-19T07:44:11;80.15;;;43.60;;
67776;SDS011;54576;52.020;5.536;2022-08-19T07:46:38;88.88;;;45.35;;
67776;SDS011;54576;52.020;5.536;2022-08-19T07:49:06;84.30;;;44.30;;
67776;SDS011;54576;52.020;5.536;2022-08-19T07:51:32;85.53;;;42.17;;
67776;SDS011;54576;52.020;5.536;2022-08-19T07:53:59;76.20;;;39.00;;
67776;SDS011;54576;52.020;5.536;2022-08-19T07:56:25;86.78;;;41.25;;
67776;SDS011;54576;52.020;5.536;2022-08-19T07:58:51;77.93;;;41.92;;
67776;SDS011;54576;52.020;5.536;2022-08-19T08:01:18;76.10;;;40.83;;
67776;SDS011;54576;52.020;5.536;2022-08-19T08:03:47;76.15;;;40.38;;
67776;SDS011;54576;52.020;5.536;2022-08-19T08:06:32;75.55;;;39.35;;
67776;SDS011;54576;52.020;5.536;2022-08-19T08:09:18;58.95;;;34.13;;
67776;SDS011;54576;52.020;5.536;2022-08-19T08:12:00;62.47;;;35.50;;
67776;SDS011;54576;52.020;5.536;2022-08-19T08:14:35;67.28;;;38.00;;
67776;SDS011;54576;52.020;5.536;2022-08-19T08:17:06;64.13;;;34.80;;
67776;SDS011;54576;52.020;5.536;2022-08-19T08:19:32;58.20;;;33.45;;
67776;SDS011;54576;52.020;5.536;2022-08-19T08:21:58;63.10;;;32.83;;
67776;SDS011;54576;52.020;5.536;2022-08-19T08:24:26;56.28;;;30.20;;
67776;SDS011;54576;52.020;5.536;2022-08-19T08:26:53;56.03;;;33.27;;
67776;SDS011;54576;52.020;5.536;2022-08-19T08:29:19;61.00;;;34.08;;
67776;SDS011;54576;52.020;5.536;2022-08-19T08:31:45;50.97;;;31.00;;
67776;SDS011;54576;52.020;5.536;2022-08-19T08:34:12;58.20;;;31.10;;
67776;SDS011;54576;52.020;5.536;2022-08-19T08:36:40;57.58;;;32.60;;
67776;SDS011;54576;52.020;5.536;2022-08-19T08:39:09;54.15;;;30.20;;
67776;SDS011;54576;52.020;5.536;2022-08-19T08:41:52;49.60;;;30.45;;
67776;SDS011;54576;52.020;5.536;2022-08-19T08:47:14;42.38;;;26.85;;
67776;SDS011;54576;52.020;5.536;2022-08-19T08:49:53;45.95;;;27.83;;
67776;SDS011;54576;52.020;5.536;2022-08-19T08:54:55;54.67;;;29.80;;
67776;SDS011;54576;52.020;5.536;2022-08-19T08:59:52;50.47;;;28.13;;
67776;SDS011;54576;52.020;5.536;2022-08-19T09:02:21;49.65;;;27.52;;
67776;SDS011;54576;52.020;5.536;2022-08-19T09:04:46;42.90;;;23.88;;
67776;SDS011;54576;52.020;5.536;2022-08-19T09:09:48;38.95;;;24.15;;
67776;SDS011;54576;52.020;5.536;2022-08-19T09:15:09;46.17;;;25.70;;
67776;SDS011;54576;52.020;5.536;2022-08-19T09:17:37;48.50;;;26.55;;
67776;SDS011;54576;52.020;5.536;2022-08-19T09:22:38;36.28;;;22.80;;
67776;SDS011;54576;52.020;5.536;2022-08-19T09:25:08;41.75;;;25.08;;
67776;SDS011;54576;52.020;5.536;2022-08-19T09:27:35;38.28;;;24.00;;
67776;SDS011;54576;52.020;5.536;2022-08-19T09:30:03;40.35;;;23.45;;
67776;SDS011;54576;52.020;5.536;2022-08-19T09:32:29;36.10;;;21.52;;
67776;SDS011;54576;52.020;5.536;2022-08-19T09:34:55;34.90;;;21.45;;
67776;SDS011;54576;52.020;5.536;2022-08-19T09:37:23;43.63;;;23.10;;
67776;SDS011;54576;52.020;5.536;2022-08-19T09:39:51;33.40;;;20.95;;
67776;SDS011;54576;52.020;5.536;2022-08-19T09:42:17;32.78;;;19.13;;
67776;SDS011;54576;52.020;5.536;2022-08-19T09:44:43;28.83;;;18.70;;
67776;SDS011;54576;52.020;5.536;2022-08-19T09:47:10;32.92;;;19.27;;
67776;SDS011;54576;52.020;5.536;2022-08-19T09:49:36;29.85;;;16.02;;
67776;SDS011;54576;52.020;5.536;2022-08-19T09:52:02;31.33;;;19.85;;
67776;SDS011;54576;52.020;5.536;2022-08-19T09:54:28;30.48;;;17.73;;
67776;SDS011;54576;52.020;5.536;2022-08-19T09:56:54;31.77;;;17.88;;
67776;SDS011;54576;52.020;5.536;2022-08-19T09:59:22;27.83;;;17.23;;
67776;SDS011;54576;52.020;5.536;2022-08-19T10:01:48;31.23;;;16.75;;
67776;SDS011;54576;52.020;5.536;2022-08-19T10:04:13;26.15;;;17.20;;
67776;SDS011;54576;52.020;5.536;2022-08-19T10:06:39;28.48;;;16.05;;
67776;SDS011;54576;52.020;5.536;2022-08-19T10:09:07;35.72;;;16.42;;
67776;SDS011;54576;52.020;5.536;2022-08-19T10:11:34;27.70;;;14.27;;
67776;SDS011;54576;52.020;5.536;2022-08-19T10:14:02;28.88;;;14.05;;
67776;SDS011;54576;52.020;5.536;2022-08-19T10:18:56;27.65;;;15.77;;
67776;SDS011;54576;52.020;5.536;2022-08-19T10:21:23;31.00;;;16.42;;
67776;SDS011;54576;52.020;5.536;2022-08-19T10:23:51;35.55;;;15.05;;
67776;SDS011;54576;52.020;5.536;2022-08-19T10:26:20;30.65;;;17.38;;
67776;SDS011;54576;52.020;5.536;2022-08-19T10:28:48;24.05;;;16.00;;
67776;SDS011;54576;52.020;5.536;2022-08-19T10:31:16;35.42;;;15.90;;
67776;SDS011;54576;52.020;5.536;2022-08-19T10:33:47;26.90;;;16.95;;
67776;SDS011;54576;52.020;5.536;2022-08-19T10:36:14;35.05;;;18.67;;
67776;SDS011;54576;52.020;5.536;2022-08-19T10:38:42;32.08;;;17.15;;
67776;SDS011;54576;52.020;5.536;2022-08-19T10:41:14;37.85;;;17.75;;
67776;SDS011;54576;52.020;5.536;2022-08-19T10:43:49;29.75;;;16.85;;
67776;SDS011;54576;52.020;5.536;2022-08-19T10:46:17;28.70;;;17.05;;
67776;SDS011;54576;52.020;5.536;2022-08-19T10:48:43;30.33;;;18.25;;
67776;SDS011;54576;52.020;5.536;2022-08-19T10:51:09;31.65;;;18.13;;
67776;SDS011;54576;52.020;5.536;2022-08-19T10:53:54;31.50;;;17.25;;
67776;SDS011;54576;52.020;5.536;2022-08-19T10:56:20;32.40;;;18.77;;
67776;SDS011;54576;52.020;5.536;2022-08-19T10:59:05;29.05;;;16.17;;
67776;SDS011;54576;52.020;5.536;2022-08-19T11:01:31;26.80;;;18.17;;
67776;SDS011;54576;52.020;5.536;2022-08-19T11:03:59;30.25;;;17.67;;
67776;SDS011;54576;52.020;5.536;2022-08-19T11:06:28;26.30;;;16.02;;
67776;SDS011;54576;52.020;5.536;2022-08-19T11:08:56;35.20;;;19.75;;
67776;SDS011;54576;52.020;5.536;2022-08-19T11:11:22;31.92;;;19.05;;
67776;SDS011;54576;52.020;5.536;2022-08-19T11:13:48;30.67;;;18.50;;
67776;SDS011;54576;52.020;5.536;2022-08-19T11:16:22;31.92;;;20.58;;
67776;SDS011;54576;52.020;5.536;2022-08-19T11:18:51;35.58;;;19.35;;
67776;SDS011;54576;52.020;5.536;2022-08-19T11:21:21;30.10;;;19.33;;
67776;SDS011;54576;52.020;5.536;2022-08-19T11:23:50;30.48;;;19.17;;
67776;SDS011;54576;52.020;5.536;2022-08-19T11:26:18;33.30;;;18.85;;
67776;SDS011;54576;52.020;5.536;2022-08-19T11:28:44;37.25;;;19.25;;
67776;SDS011;54576;52.020;5.536;2022-08-19T11:31:14;35.53;;;19.42;;
67776;SDS011;54576;52.020;5.536;2022-08-19T11:33:42;38.83;;;19.98;;
67776;SDS011;54576;52.020;5.536;2022-08-19T11:36:08;35.75;;;19.50;;
67776;SDS011;54576;52.020;5.536;2022-08-19T11:38:35;32.38;;;21.58;;
67776;SDS011;54576;52.020;5.536;2022-08-19T11:41:02;33.72;;;19.40;;
67776;SDS011;54576;52.020;5.536;2022-08-19T11:43:29;36.40;;;20.40;;
67776;SDS011;54576;52.020;5.536;2022-08-19T11:45:56;32.13;;;19.90;;
67776;SDS011;54576;52.020;5.536;2022-08-19T11:48:21;38.22;;;20.88;;
67776;SDS011;54576;52.020;5.536;2022-08-19T11:50:49;42.53;;;22.20;;
67776;SDS011;54576;52.020;5.536;2022-08-19T11:53:16;30.88;;;19.48;;
67776;SDS011;54576;52.020;5.536;2022-08-19T11:55:45;40.55;;;22.20;;
67776;SDS011;54576;52.020;5.536;2022-08-19T11:58:11;37.55;;;21.17;;
67776;SDS011;54576;52.020;5.536;2022-08-19T12:00:38;33.38;;;21.55;;
67776;SDS011;54576;52.020;5.536;2022-08-19T12:03:05;40.83;;;20.40;;
67776;SDS011;54576;52.020;5.536;2022-08-19T12:05:31;34.90;;;21.52;;
67776;SDS011;54576;52.020;5.536;2022-08-19T12:07:56;33.90;;;21.05;;
67776;SDS011;54576;52.020;5.536;2022-08-19T12:10:22;38.45;;;20.65;;
67776;SDS011;54576;52.020;5.536;2022-08-19T12:12:48;31.35;;;21.33;;
67776;SDS011;54576;52.020;5.536;2022-08-19T12:15:14;38.85;;;20.52;;
67776;SDS011;54576;52.020;5.536;2022-08-19T12:17:40;30.83;;;17.42;;
67776;SDS011;54576;52.020;5.536;2022-08-19T12:20:07;30.15;;;18.13;;
67776;SDS011;54576;52.020;5.536;2022-08-19T12:25:01;31.48;;;20.00;;
67776;SDS011;54576;52.020;5.536;2022-08-19T12:27:28;31.45;;;18.95;;
67776;SDS011;54576;52.020;5.536;2022-08-19T12:29:53;24.05;;;17.30;;
67776;SDS011;54576;52.020;5.536;2022-08-19T12:32:19;34.75;;;21.13;;
67776;SDS011;54576;52.020;5.536;2022-08-19T12:34:44;30.08;;;16.98;;
67776;SDS011;54576;52.020;5.536;2022-08-19T12:37:12;34.20;;;20.50;;
67776;SDS011;54576;52.020;5.536;2022-08-19T12:39:39;28.45;;;17.58;;
67776;SDS011;54576;52.020;5.536;2022-08-19T12:42:07;29.35;;;16.85;;
67776;SDS011;54576;52.020;5.536;2022-08-19T12:44:34;31.05;;;17.23;;
67776;SDS011;54576;52.020;5.536;2022-08-19T12:47:01;30.65;;;16.85;;
67776;SDS011;54576;52.020;5.536;2022-08-19T12:49:28;31.92;;;15.90;;
67776;SDS011;54576;52.020;5.536;2022-08-19T12:51:56;30.25;;;16.35;;
67776;SDS011;54576;52.020;5.536;2022-08-19T12:54:22;28.38;;;15.70;;
67776;SDS011;54576;52.020;5.536;2022-08-19T12:56:48;23.98;;;13.90;;
67776;SDS011;54576;52.020;5.536;2022-08-19T12:59:14;23.50;;;15.02;;
67776;SDS011;54576;52.020;5.536;2022-08-19T13:01:42;29.17;;;15.18;;
67776;SDS011;54576;52.020;5.536;2022-08-19T13:04:08;23.52;;;13.73;;
67776;SDS011;54576;52.020;5.536;2022-08-19T13:06:35;25.30;;;15.43;;
67776;SDS011;54576;52.020;5.536;2022-08-19T13:09:01;32.55;;;16.00;;
67776;SDS011;54576;52.020;5.536;2022-08-19T13:11:27;35.80;;;16.00;;
67776;SDS011;54576;52.020;5.536;2022-08-19T13:13:57;36.80;;;18.65;;
67776;SDS011;54576;52.020;5.536;2022-08-19T13:16:23;30.17;;;16.95;;
67776;SDS011;54576;52.020;5.536;2022-08-19T13:18:49;37.97;;;16.67;;
67776;SDS011;54576;52.020;5.536;2022-08-19T13:21:17;34.47;;;18.20;;
67776;SDS011;54576;52.020;5.536;2022-08-19T13:23:44;23.85;;;15.27;;
67776;SDS011;54576;52.020;5.536;2022-08-19T13:26:11;29.92;;;15.15;;
67776;SDS011;54576;52.020;5.536;2022-08-19T13:28:38;21.50;;;13.43;;
67776;SDS011;54576;52.020;5.536;2022-08-19T13:31:23;28.40;;;12.45;;
67776;SDS011;54576;52.020;5.536;2022-08-19T13:34:08;16.83;;;11.32;;
67776;SDS011;54576;52.020;5.536;2022-08-19T13:36:34;15.88;;;10.65;;
67776;SDS011;54576;52.020;5.536;2022-08-19T13:39:01;21.02;;;10.38;;
67776;SDS011;54576;52.020;5.536;2022-08-19T13:41:28;17.73;;;12.07;;
67776;SDS011;54576;52.020;5.536;2022-08-19T13:43:54;28.25;;;13.45;;
67776;SDS011;54576;52.020;5.536;2022-08-19T13:46:20;22.00;;;12.68;;
67776;SDS011;54576;52.020;5.536;2022-08-19T13:48:46;18.88;;;12.45;;
67776;SDS011;54576;52.020;5.536;2022-08-19T13:51:16;25.63;;;12.75;;
67776;SDS011;54576;52.020;5.536;2022-08-19T13:53:42;23.48;;;11.20;;
67776;SDS011;54576;52.020;5.536;2022-08-19T13:56:10;32.92;;;12.85;;
67776;SDS011;54576;52.020;5.536;2022-08-19T13:58:37;24.08;;;11.73;;
67776;SDS011;54576;52.020;5.536;2022-08-19T14:01:04;20.40;;;11.88;;
67776;SDS011;54576;52.020;5.536;2022-08-19T14:03:30;21.75;;;12.20;;
67776;SDS011;54576;52.020;5.536;2022-08-19T14:05:56;18.08;;;11.20;;
67776;SDS011;54576;52.020;5.536;2022-08-19T14:08:22;18.13;;;10.50;;
67776;SDS011;54576;52.020;5.536;2022-08-19T14:10:48;15.88;;;9.15;;
67776;SDS011;54576;52.020;5.536;2022-08-19T14:13:19;15.27;;;8.77;;
67776;SDS011;54576;52.020;5.536;2022-08-19T14:15:46;18.70;;;8.15;;
67776;SDS011;54576;52.020;5.536;2022-08-19T14:18:12;14.45;;;7.72;;
67776;SDS011;54576;52.020;5.536;2022-08-19T14:20:38;22.77;;;8.55;;
67776;SDS011;54576;52.020;5.536;2022-08-19T14:23:04;20.23;;;7.28;;
67776;SDS011;54576;52.020;5.536;2022-08-19T14:25:30;17.60;;;8.48;;
67776;SDS011;54576;52.020;5.536;2022-08-19T14:27:57;17.73;;;9.00;;
67776;SDS011;54576;52.020;5.536;2022-08-19T14:30:27;15.70;;;7.68;;
67776;SDS011;54576;52.020;5.536;2022-08-19T14:32:58;14.05;;;8.32;;
67776;SDS011;54576;52.020;5.536;2022-08-19T14:35:25;12.07;;;6.50;;
67776;SDS011;54576;52.020;5.536;2022-08-19T14:37:52;11.60;;;6.82;;
67776;SDS011;54576;52.020;5.536;2022-08-19T14:40:23;6.47;;;4.70;;
67776;SDS011;54576;52.020;5.536;2022-08-19T14:42:55;11.77;;;6.30;;
67776;SDS011;54576;52.020;5.536;2022-08-19T14:45:24;6.80;;;5.15;;
67776;SDS011;54576;52.020;5.536;2022-08-19T14:47:51;5.63;;;4.47;;
67776;SDS011;54576;52.020;5.536;2022-08-19T14:50:17;6.75;;;5.10;;
67776;SDS011;54576;52.020;5.536;2022-08-19T14:52:43;7.70;;;4.93;;
67776;SDS011;54576;52.020;5.536;2022-08-19T14:55:09;5.38;;;4.55;;
67776;SDS011;54576;52.020;5.536;2022-08-19T14:57:35;7.35;;;4.47;;